Time;durP1;ratioP1;P1;durP2;ratioP2;P2;SDS_P1;SDS_P2;PMS_P1;PMS_P2;Temp;Humidity;BMP_temperature;BMP_pressure;BME280_temperature;BME280_humidity;BME280_pressure;Samples;Min_cycle;Max_cycle;Signal;HPM_P1;HPM_P2
2021/10/14 00:01:35;;;;;;;48.63;27.43;;;5.00;99.90;;;;;;4441636;32;20173;-67
2021/10/14 00:04:02;;;;;;;47.00;26.80;;;5.10;99.90;;;;;;4439826;32;20452;-68
2021/10/14 00:06:29;;;;;;;43.50;26.00;;;5.00;99.90;;;;;;4447699;32;20550;-67
2021/10/14 00:08:56;;;;;;;48.53;27.37;;;5.00;99.90;;;;;;4439451;32;20192;-68
2021/10/14 00:11:24;;;;;;;49.87;26.63;;;5.10;99.90;;;;;;4440615;32;20129;-68
2021/10/14 00:13:51;;;;;;;51.00;27.33;;;5.10;99.90;;;;;;4440089;32;20121;-68
2021/10/14 00:16:18;;;;;;;50.47;27.73;;;5.10;99.90;;;;;;4441415;32;20172;-68
2021/10/14 00:18:45;;;;;;;48.53;27.40;;;5.10;99.90;;;;;;4440337;32;20190;-68
2021/10/14 00:21:11;;;;;;;49.90;26.20;;;5.00;99.90;;;;;;4441519;32;20161;-68
2021/10/14 00:23:38;;;;;;;47.13;26.80;;;5.00;99.90;;;;;;4441480;32;20127;-68
2021/10/14 00:26:05;;;;;;;47.47;27.03;;;5.00;99.90;;;;;;4439221;32;20222;-68
2021/10/14 00:28:32;;;;;;;46.40;25.67;;;5.00;99.90;;;;;;4439446;32;20154;-67
2021/10/14 00:30:59;;;;;;;47.57;26.67;;;5.10;99.90;;;;;;4441328;32;20128;-68
2021/10/14 00:33:26;;;;;;;48.30;26.20;;;5.10;99.90;;;;;;4439472;32;20441;-67
2021/10/14 00:35:52;;;;;;;43.00;25.07;;;5.20;99.90;;;;;;4441105;32;20136;-68
2021/10/14 00:38:19;;;;;;;44.83;25.07;;;5.20;99.90;;;;;;4449078;32;20159;-68
2021/10/14 00:40:46;;;;;;;45.67;26.03;;;5.20;99.90;;;;;;4440513;32;20127;-67
2021/10/14 00:43:13;;;;;;;47.20;25.87;;;5.10;99.90;;;;;;4438848;32;20449;-67
2021/10/14 00:45:41;;;;;;;47.30;26.87;;;5.10;99.90;;;;;;4440930;32;20211;-68
2021/10/14 00:48:08;;;;;;;45.13;25.57;;;5.10;99.90;;;;;;4441142;32;20421;-68
2021/10/14 00:50:34;;;;;;;46.17;24.77;;;5.10;99.90;;;;;;4441169;32;20135;-67
2021/10/14 00:53:02;;;;;;;43.50;24.73;;;5.10;99.90;;;;;;4439454;32;20158;-67
2021/10/14 00:55:29;;;;;;;42.47;24.23;;;5.10;99.90;;;;;;4440482;32;20133;-68
2021/10/14 00:57:56;;;;;;;40.23;24.27;;;5.10;99.90;;;;;;4440829;32;20415;-68
2021/10/14 01:00:23;;;;;;;45.07;24.37;;;5.10;99.90;;;;;;4439340;32;20375;-68
2021/10/14 01:02:50;;;;;;;39.13;23.03;;;5.10;99.90;;;;;;4441014;32;20157;-67
2021/10/14 01:05:17;;;;;;;42.77;23.57;;;5.10;99.90;;;;;;4440798;32;20347;-68
2021/10/14 01:07:44;;;;;;;41.80;23.07;;;5.00;99.90;;;;;;4440365;32;20162;-68
2021/10/14 01:10:11;;;;;;;38.70;23.40;;;4.80;99.90;;;;;;4440353;32;20192;-68
2021/10/14 01:12:38;;;;;;;39.70;23.60;;;4.80;99.90;;;;;;4440693;32;20179;-68
2021/10/14 01:15:24;;;;;;;41.07;23.07;;;4.80;99.90;;;;;;4445618;32;20150;-68
2021/10/14 01:17:51;;;;;;;43.13;24.37;;;4.70;99.90;;;;;;4440760;32;20389;-68
2021/10/14 01:20:19;;;;;;;39.87;23.53;;;4.70;99.90;;;;;;4439322;32;20148;-68
2021/10/14 01:22:46;;;;;;;39.83;23.17;;;4.70;99.90;;;;;;4440563;32;20196;-68
2021/10/14 01:25:13;;;;;;;40.57;23.83;;;4.60;99.90;;;;;;4439599;32;20132;-68
2021/10/14 01:27:40;;;;;;;42.03;23.00;;;4.60;99.90;;;;;;4439003;32;20132;-68
2021/10/14 01:30:08;;;;;;;38.90;22.13;;;4.50;99.90;;;;;;4440668;32;20181;-68
2021/10/14 01:32:35;;;;;;;40.83;21.53;;;4.50;99.90;;;;;;4440737;32;20123;-68
2021/10/14 01:35:03;;;;;;;37.00;21.77;;;4.50;99.90;;;;;;4440833;32;20210;-68
2021/10/14 01:37:30;;;;;;;41.03;22.53;;;4.50;99.90;;;;;;4440468;32;20151;-68
2021/10/14 01:39:57;;;;;;;33.50;20.90;;;4.50;99.90;;;;;;4438645;32;20178;-68
2021/10/14 01:42:24;;;;;;;35.20;20.53;;;4.50;99.90;;;;;;4440617;32;20120;-67
2021/10/14 01:44:51;;;;;;;35.50;21.13;;;4.50;99.90;;;;;;4439135;32;20123;-67
2021/10/14 01:47:18;;;;;;;36.83;22.50;;;4.50;99.90;;;;;;4439012;32;20135;-68
2021/10/14 01:49:45;;;;;;;38.30;21.67;;;4.50;99.90;;;;;;4447181;32;20143;-67
2021/10/14 01:52:12;;;;;;;33.37;21.20;;;4.50;99.90;;;;;;4440194;32;20168;-67
2021/10/14 01:54:39;;;;;;;38.93;20.77;;;4.40;99.90;;;;;;4441043;32;20189;-68
2021/10/14 01:57:05;;;;;;;40.27;21.87;;;4.40;99.90;;;;;;4443522;32;20175;-68
2021/10/14 01:59:32;;;;;;;39.87;21.27;;;4.30;99.90;;;;;;4442031;32;20179;-67
2021/10/14 02:01:59;;;;;;;34.93;20.63;;;4.30;99.90;;;;;;4441757;32;20576;-68
2021/10/14 02:04:26;;;;;;;39.37;20.77;;;4.30;99.90;;;;;;4443488;32;20128;-69
2021/10/14 02:06:53;;;;;;;33.37;19.60;;;4.30;99.90;;;;;;4441414;32;20472;-67
2021/10/14 02:09:19;;;;;;;36.27;18.87;;;4.30;99.90;;;;;;4442936;32;20208;-67
2021/10/14 02:11:46;;;;;;;35.50;18.53;;;4.30;99.90;;;;;;4442288;32;20184;-67
2021/10/14 02:14:13;;;;;;;34.80;18.60;;;4.40;99.90;;;;;;4441552;32;20441;-67
2021/10/14 02:16:39;;;;;;;31.73;17.63;;;4.30;99.90;;;;;;4443225;32;20171;-67
2021/10/14 02:19:06;;;;;;;35.37;19.13;;;4.40;99.90;;;;;;4443370;32;20162;-68
2021/10/14 02:21:33;;;;;;;30.40;17.53;;;4.40;99.90;;;;;;4443125;32;20132;-69
2021/10/14 02:24:00;;;;;;;33.53;18.27;;;4.40;99.90;;;;;;4442489;32;20128;-67
2021/10/14 02:26:26;;;;;;;33.30;17.97;;;4.30;99.90;;;;;;4441195;32;20178;-68
2021/10/14 02:28:53;;;;;;;31.67;17.43;;;4.30;99.90;;;;;;4449023;32;20210;-68
2021/10/14 02:31:20;;;;;;;34.07;17.17;;;4.30;99.90;;;;;;4445111;32;20192;-68
2021/10/14 02:33:47;;;;;;;29.10;17.20;;;4.30;99.90;;;;;;4443161;32;20504;-68
2021/10/14 02:36:14;;;;;;;31.80;17.87;;;4.30;99.90;;;;;;4442907;32;20131;-67
2021/10/14 02:38:40;;;;;;;33.00;17.13;;;4.10;99.90;;;;;;4440972;32;20152;-68
2021/10/14 02:41:07;;;;;;;33.03;17.30;;;4.10;99.90;;;;;;4442844;32;20180;-68
2021/10/14 02:43:34;;;;;;;34.83;18.20;;;4.10;99.90;;;;;;4442705;32;20123;-68
2021/10/14 02:46:00;;;;;;;31.80;18.50;;;4.10;99.90;;;;;;4442853;32;20174;-68
2021/10/14 02:48:27;;;;;;;32.90;17.97;;;4.10;99.90;;;;;;4442969;32;20128;-68
2021/10/14 02:50:54;;;;;;;31.60;18.27;;;4.10;99.90;;;;;;4441557;32;20148;-68
2021/10/14 02:53:21;;;;;;;32.63;19.10;;;4.00;99.90;;;;;;4442685;32;20126;-68
2021/10/14 02:55:48;;;;;;;41.13;20.97;;;4.00;99.90;;;;;;4442729;32;20126;-68
2021/10/14 02:58:14;;;;;;;38.70;19.33;;;3.90;99.90;;;;;;4442235;32;20139;-68
2021/10/14 03:00:41;;;;;;;39.57;20.30;;;4.00;99.90;;;;;;4448398;32;20139;-68
2021/10/14 03:03:08;;;;;;;51.23;22.93;;;4.10;99.90;;;;;;4442209;32;20131;-68
2021/10/14 03:05:35;;;;;;;47.60;23.73;;;3.90;99.90;;;;;;4440560;32;20124;-68
2021/10/14 03:08:02;;;;;;;50.10;24.10;;;3.90;99.90;;;;;;4440617;32;20159;-69
2021/10/14 03:10:29;;;;;;;54.80;23.73;;;3.80;99.90;;;;;;4442210;32;20146;-67
2021/10/14 03:12:56;;;;;;;51.87;24.63;;;3.90;99.90;;;;;;4442323;32;20135;-67
2021/10/14 03:15:23;;;;;;;56.20;25.47;;;4.00;99.90;;;;;;4440476;32;20564;-67
2021/10/14 03:17:49;;;;;;;55.30;25.60;;;4.00;99.90;;;;;;4442366;32;20509;-70
2021/10/14 03:20:17;;;;;;;61.63;25.33;;;4.00;99.90;;;;;;4440407;32;20182;-68
2021/10/14 03:22:43;;;;;;;56.47;22.70;;;4.00;99.90;;;;;;4442269;32;20131;-69
2021/10/14 03:25:10;;;;;;;57.30;24.33;;;3.90;99.90;;;;;;4441969;32;20195;-69
2021/10/14 03:27:37;;;;;;;91.17;24.30;;;3.80;99.90;;;;;;4440397;32;20147;-67
2021/10/14 03:30:05;;;;;;;85.83;24.87;;;3.80;99.90;;;;;;4440342;32;20147;-68
2021/10/14 03:32:31;;;;;;;54.03;22.40;;;3.80;99.90;;;;;;4441602;32;20136;-68
2021/10/14 03:34:58;;;;;;;55.97;22.20;;;3.80;99.90;;;;;;4440074;32;20183;-68
2021/10/14 03:37:25;;;;;;;53.90;23.83;;;3.80;99.90;;;;;;4443719;32;20142;-68
2021/10/14 03:39:51;;;;;;;54.50;24.47;;;3.70;99.90;;;;;;4447155;32;20135;-68
2021/10/14 03:42:20;;;;;;;56.00;23.37;;;3.80;99.90;;;;;;4441991;32;20396;-68
2021/10/14 03:44:47;;;;;;;48.43;23.23;;;3.70;99.90;;;;;;4440283;32;20140;-68
2021/10/14 03:47:14;;;;;;;47.43;22.13;;;3.70;99.90;;;;;;4442981;32;20187;-68
2021/10/14 03:49:40;;;;;;;71.07;22.47;;;3.70;99.90;;;;;;4448059;32;20209;-68
2021/10/14 03:52:07;;;;;;;59.40;23.07;;;3.70;99.90;;;;;;4441802;32;20284;-68
2021/10/14 03:54:34;;;;;;;53.10;23.80;;;3.70;99.90;;;;;;4441799;32;20174;-68
2021/10/14 03:57:01;;;;;;;55.00;24.60;;;3.60;99.90;;;;;;4441558;32;20184;-68
2021/10/14 03:59:27;;;;;;;58.40;24.10;;;3.60;99.90;;;;;;4440195;32;20127;-68
2021/10/14 04:01:54;;;;;;;54.27;24.73;;;3.60;99.90;;;;;;4441802;32;20131;-69
2021/10/14 04:04:23;;;;;;;50.50;23.13;;;3.60;99.90;;;;;;4440037;32;20498;-69
2021/10/14 04:06:50;;;;;;;70.50;24.33;;;3.60;99.90;;;;;;4439715;32;20525;-69
2021/10/14 04:09:16;;;;;;;145.97;26.73;;;3.50;99.90;;;;;;4439903;32;20163;-69
2021/10/14 04:11:43;;;;;;;60.00;25.13;;;3.40;99.90;;;;;;4441214;32;20160;-69
2021/10/14 04:14:10;;;;;;;59.00;24.10;;;3.40;99.90;;;;;;4441417;32;20242;-69
2021/10/14 04:16:37;;;;;;;52.80;24.93;;;3.40;99.90;;;;;;4439966;32;20530;-70
2021/10/14 04:19:04;;;;;;;51.73;24.47;;;3.40;99.90;;;;;;4440512;32;20284;-69
2021/10/14 04:21:31;;;;;;;52.50;24.30;;;3.40;99.90;;;;;;4441371;32;20148;-69
2021/10/14 04:23:58;;;;;;;59.53;25.53;;;3.40;99.90;;;;;;4447283;32;20154;-69
2021/10/14 04:26:25;;;;;;;54.57;25.03;;;3.40;99.90;;;;;;4454594;32;20151;-69
2021/10/14 04:28:51;;;;;;;62.10;25.80;;;3.40;99.90;;;;;;4455043;32;20441;-69
2021/10/14 04:31:18;;;;;;;65.80;28.17;;;3.50;99.90;;;;;;4456589;32;20189;-68
2021/10/14 04:33:45;;;;;;;63.57;27.33;;;3.50;99.90;;;;;;4456654;32;20161;-69
2021/10/14 04:36:12;;;;;;;62.83;28.10;;;3.60;99.90;;;;;;4455275;32;20416;-69
2021/10/14 04:38:39;;;;;;;65.50;28.30;;;3.50;99.90;;;;;;4456552;32;20151;-69
2021/10/14 04:41:06;;;;;;;64.33;28.00;;;3.50;99.90;;;;;;4454840;32;20404;-69
2021/10/14 04:43:33;;;;;;;70.03;27.90;;;3.50;99.90;;;;;;4454540;32;20184;-69
2021/10/14 04:45:59;;;;;;;87.23;29.63;;;3.60;99.90;;;;;;4455222;32;20161;-69
2021/10/14 04:48:26;;;;;;;73.83;27.83;;;3.50;99.90;;;;;;4455046;32;20128;-69
2021/10/14 04:50:53;;;;;;;65.73;26.80;;;3.50;99.90;;;;;;4456257;32;20511;-69
2021/10/14 04:53:19;;;;;;;65.67;25.63;;;3.50;99.90;;;;;;4455381;32;20175;-69
2021/10/14 04:55:46;;;;;;;55.20;23.70;;;3.50;99.90;;;;;;4456018;32;20128;-69
2021/10/14 04:58:13;;;;;;;53.30;23.27;;;3.40;99.90;;;;;;4455061;32;20518;-68
2021/10/14 05:00:40;;;;;;;51.00;23.60;;;3.40;99.90;;;;;;4456474;32;20123;-69
2021/10/14 05:03:07;;;;;;;57.07;23.27;;;3.40;99.90;;;;;;4456437;32;20182;-69
2021/10/14 05:05:37;;;;;;;56.63;22.77;;;3.40;99.90;;;;;;4452507;32;20385;-69
2021/10/14 05:08:06;;;;;;;50.30;23.73;;;3.30;99.90;;;;;;4449405;32;20162;-68
2021/10/14 05:10:33;;;;;;;77.97;23.67;;;3.30;99.90;;;;;;4455111;32;20158;-68
2021/10/14 05:13:00;;;;;;;63.00;24.10;;;3.20;99.90;;;;;;4454574;32;20127;-67
2021/10/14 05:15:27;;;;;;;66.60;21.90;;;3.20;99.90;;;;;;4455496;32;20408;-68
2021/10/14 05:17:54;;;;;;;52.50;22.60;;;3.20;99.90;;;;;;4455872;32;20178;-68
2021/10/14 05:20:21;;;;;;;68.20;22.63;;;3.20;99.90;;;;;;4455796;32;20493;-69
2021/10/14 05:22:47;;;;;;;76.17;22.90;;;3.10;99.90;;;;;;4455267;32;20513;-69
2021/10/14 05:25:14;;;;;;;53.13;23.20;;;3.00;99.90;;;;;;4455566;32;20187;-68
2021/10/14 05:27:41;;;;;;;104.13;24.23;;;3.10;99.90;;;;;;4456007;32;20138;-68
2021/10/14 05:30:08;;;;;;;53.53;20.63;;;3.10;99.90;;;;;;4455338;32;20150;-68
2021/10/14 05:32:36;;;;;;;53.73;20.20;;;3.10;99.90;;;;;;4457522;32;20154;-68
2021/10/14 05:35:03;;;;;;;60.47;21.33;;;3.10;99.90;;;;;;4457144;32;20465;-69
2021/10/14 05:37:30;;;;;;;67.60;21.60;;;3.10;99.90;;;;;;4448674;32;20304;-70
2021/10/14 05:39:56;;;;;;;54.37;21.83;;;3.10;99.90;;;;;;4457379;32;20135;-68
2021/10/14 05:42:23;;;;;;;54.83;22.20;;;3.00;99.90;;;;;;4457071;32;20158;-68
2021/10/14 05:44:50;;;;;;;61.53;23.03;;;3.20;99.90;;;;;;4456909;32;20134;-69
2021/10/14 05:47:17;;;;;;;55.63;22.63;;;3.20;99.90;;;;;;4456709;32;20122;-69
2021/10/14 05:49:43;;;;;;;51.43;21.53;;;3.30;99.90;;;;;;4458847;32;20222;-69
2021/10/14 05:52:10;;;;;;;44.53;21.67;;;3.30;99.90;;;;;;4458804;32;20179;-68
2021/10/14 05:54:37;;;;;;;77.67;22.70;;;3.30;99.90;;;;;;4458097;32;20188;-68
2021/10/14 05:57:04;;;;;;;92.77;23.07;;;3.40;99.90;;;;;;4458405;32;20150;-69
2021/10/14 05:59:31;;;;;;;48.63;21.27;;;3.30;99.90;;;;;;4458471;32;20130;-69
2021/10/14 06:01:58;;;;;;;71.67;22.40;;;3.30;99.90;;;;;;4458856;32;20137;-69
2021/10/14 06:04:25;;;;;;;53.37;22.63;;;3.30;99.90;;;;;;4457882;32;20175;-70
2021/10/14 06:06:51;;;;;;;58.77;24.00;;;3.40;99.90;;;;;;4456758;32;20132;-67
2021/10/14 06:09:18;;;;;;;50.07;23.70;;;3.40;99.90;;;;;;4456710;32;20215;-68
2021/10/14 06:11:45;;;;;;;52.47;24.43;;;3.40;99.90;;;;;;4457905;32;20476;-68
2021/10/14 06:14:12;;;;;;;55.23;25.37;;;3.50;99.90;;;;;;4456707;32;20166;-69
2021/10/14 06:16:38;;;;;;;59.03;24.20;;;3.50;99.90;;;;;;4456395;32;20130;-68
2021/10/14 06:19:05;;;;;;;58.00;25.27;;;3.60;99.90;;;;;;4456504;32;20243;-69
2021/10/14 06:21:32;;;;;;;50.37;23.80;;;3.70;99.90;;;;;;4446541;32;20606;-67
2021/10/14 06:23:59;;;;;;;55.23;25.47;;;3.70;99.90;;;;;;4457936;32;20175;-68
2021/10/14 06:26:25;;;;;;;59.60;25.77;;;3.90;99.90;;;;;;4456811;32;20203;-68
2021/10/14 06:28:52;;;;;;;58.97;24.50;;;3.80;99.90;;;;;;4456460;32;20489;-69
2021/10/14 06:31:19;;;;;;;51.57;24.87;;;3.80;99.90;;;;;;4457037;32;20194;-69
2021/10/14 06:33:46;;;;;;;47.17;23.53;;;3.80;99.90;;;;;;4457016;32;20222;-69
2021/10/14 06:36:13;;;;;;;49.10;22.83;;;3.90;99.90;;;;;;4457962;32;20149;-70
2021/10/14 06:38:39;;;;;;;47.70;23.77;;;3.90;99.90;;;;;;4456813;32;20152;-75
2021/10/14 06:41:06;;;;;;;48.07;24.50;;;3.90;99.90;;;;;;4457756;32;20156;-73
2021/10/14 06:43:33;;;;;;;50.10;23.87;;;3.80;99.90;;;;;;4458088;32;20148;-68
2021/10/14 06:46:00;;;;;;;47.13;24.00;;;3.90;99.90;;;;;;4457928;32;20154;-70
2021/10/14 06:48:27;;;;;;;43.83;23.17;;;4.00;99.90;;;;;;4455602;32;20360;-70
2021/10/14 06:50:53;;;;;;;47.20;22.47;;;4.10;99.90;;;;;;4455972;32;20142;-68
2021/10/14 06:53:20;;;;;;;42.47;21.47;;;4.30;99.90;;;;;;4445732;32;20189;-69
2021/10/14 06:55:47;;;;;;;38.63;19.63;;;4.50;99.90;;;;;;4457139;32;20143;-68
2021/10/14 06:58:14;;;;;;;35.97;19.70;;;4.60;99.90;;;;;;4456538;32;20169;-67
2021/10/14 07:00:41;;;;;;;37.00;19.17;;;4.70;99.90;;;;;;4457683;32;20167;-68
2021/10/14 07:03:08;;;;;;;36.83;19.83;;;4.70;99.90;;;;;;4455493;32;20159;-67
2021/10/14 07:05:35;;;;;;;38.43;19.37;;;4.60;99.90;;;;;;4455977;32;20214;-68
2021/10/14 07:08:02;;;;;;;35.87;18.77;;;4.60;99.90;;;;;;4456634;32;20261;-68
2021/10/14 07:10:29;;;;;;;33.90;19.53;;;4.60;99.90;;;;;;4455899;32;20134;-68
2021/10/14 07:12:56;;;;;;;33.40;18.57;;;4.60;99.90;;;;;;4457360;32;20161;-68
2021/10/14 07:15:23;;;;;;;38.47;18.90;;;4.70;99.90;;;;;;4457624;32;20131;-68
2021/10/14 07:17:49;;;;;;;37.10;19.93;;;4.60;99.90;;;;;;4455983;32;20135;-68
2021/10/14 07:20:16;;;;;;;34.27;19.27;;;4.60;99.90;;;;;;4441887;32;20183;-68
2021/10/14 07:22:43;;;;;;;36.07;19.93;;;4.80;99.90;;;;;;4440198;32;20145;-68
2021/10/14 07:25:10;;;;;;;35.97;18.87;;;4.90;99.90;;;;;;4440325;32;20130;-68
2021/10/14 07:27:36;;;;;;;31.00;17.57;;;5.10;99.90;;;;;;4445379;32;20166;-68
2021/10/14 07:30:08;;;;;;;29.73;17.87;;;5.30;99.90;;;;;;4449604;32;20135;-68
2021/10/14 07:32:36;;;;;;;34.67;17.67;;;5.40;99.90;;;;;;4455603;32;20203;-69
2021/10/14 07:35:05;;;;;;;29.87;16.57;;;5.60;99.90;;;;;;4457081;32;20399;-68
2021/10/14 07:37:32;;;;;;;29.57;16.40;;;5.70;99.90;;;;;;4456974;32;20611;-68
2021/10/14 07:39:59;;;;;;;29.77;16.67;;;5.80;99.90;;;;;;4456877;32;20399;-68
2021/10/14 07:42:26;;;;;;;28.43;16.00;;;5.80;99.90;;;;;;4457124;32;20143;-68
2021/10/14 07:44:53;;;;;;;24.90;14.73;;;5.80;99.90;;;;;;4456031;32;20131;-68
2021/10/14 07:47:20;;;;;;;25.10;15.37;;;5.90;99.90;;;;;;4456549;32;20443;-68
2021/10/14 07:49:47;;;;;;;25.27;14.77;;;6.00;99.90;;;;;;4456603;32;20411;-68
2021/10/14 07:52:13;;;;;;;26.23;15.40;;;6.40;99.90;;;;;;4456100;32;20173;-68
2021/10/14 07:54:40;;;;;;;27.63;15.67;;;7.00;99.90;;;;;;4456030;32;20467;-68
2021/10/14 07:57:07;;;;;;;28.27;15.83;;;7.60;99.90;;;;;;4455651;32;20408;-68
2021/10/14 07:59:34;;;;;;;26.03;16.20;;;8.10;99.90;;;;;;4444915;32;20490;-67
2021/10/14 08:02:00;;;;;;;27.50;15.73;;;8.60;99.90;;;;;;4456466;32;20156;-69
2021/10/14 08:04:27;;;;;;;29.83;16.80;;;8.90;99.90;;;;;;4456818;32;20504;-67
2021/10/14 08:06:54;;;;;;;33.67;18.03;;;9.10;99.90;;;;;;4455828;32;20129;-68
2021/10/14 08:09:21;;;;;;;30.50;15.90;;;9.20;99.90;;;;;;4454729;32;20208;-69
2021/10/14 08:11:48;;;;;;;25.37;15.23;;;9.40;99.90;;;;;;4456877;32;20130;-67
2021/10/14 08:14:14;;;;;;;25.47;15.40;;;9.80;99.90;;;;;;4456909;32;20127;-69
2021/10/14 08:16:41;;;;;;;23.27;14.27;;;10.10;99.90;;;;;;4456408;32;20127;-67
2021/10/14 08:19:08;;;;;;;23.80;14.73;;;10.40;99.90;;;;;;4456010;32;20512;-66
2021/10/14 08:21:35;;;;;;;24.90;14.33;;;10.70;99.90;;;;;;4454823;32;20188;-66
2021/10/14 08:24:02;;;;;;;27.70;14.93;;;11.10;99.90;;;;;;4454843;32;20428;-65
2021/10/14 08:26:28;;;;;;;21.90;13.63;;;11.40;99.90;;;;;;4456253;32;20221;-66
2021/10/14 08:28:55;;;;;;;23.60;13.73;;;11.80;99.90;;;;;;4456530;32;20214;-66
2021/10/14 08:31:24;;;;;;;19.17;11.53;;;12.10;99.90;;;;;;4451629;32;20162;-66
2021/10/14 08:33:51;;;;;;;20.60;11.47;;;12.50;99.90;;;;;;4449557;32;20162;-65
2021/10/14 08:36:19;;;;;;;19.70;11.30;;;12.60;99.90;;;;;;4455857;32;20122;-65
2021/10/14 08:38:47;;;;;;;18.57;11.43;;;12.80;99.90;;;;;;4455059;32;20184;-65
2021/10/14 08:41:19;;;;;;;17.57;10.57;;;12.70;99.90;;;;;;4455897;32;20217;-66
2021/10/14 08:43:47;;;;;;;18.63;10.63;;;12.50;99.90;;;;;;4456258;32;20227;-65
2021/10/14 08:46:15;;;;;;;17.10;9.73;;;12.30;99.90;;;;;;4455611;32;20131;-65
2021/10/14 08:48:43;;;;;;;16.13;9.80;;;12.20;99.90;;;;;;4456420;32;20123;-67
2021/10/14 08:51:10;;;;;;;17.07;9.70;;;12.10;99.90;;;;;;4456160;32;20184;-65
2021/10/14 08:53:37;;;;;;;15.87;10.00;;;11.80;99.90;;;;;;4455541;32;20404;-66
2021/10/14 08:56:05;;;;;;;16.97;10.10;;;12.00;99.90;;;;;;4455911;32;20186;-68
2021/10/14 08:58:32;;;;;;;16.33;9.20;;;12.20;99.90;;;;;;4455710;32;20182;-67
2021/10/14 09:01:14;;;;;;;15.53;9.30;;;12.60;99.90;;;;;;4455898;32;20508;-66
2021/10/14 09:03:48;;;;;;;16.57;9.37;;;13.30;99.90;;;;;;4455421;32;20171;-65
2021/10/14 09:06:17;;;;;;;13.63;8.07;;;13.50;99.90;;;;;;4453878;32;20125;-65
2021/10/14 09:08:45;;;;;;;12.60;7.90;;;13.90;99.90;;;;;;4454098;32;20153;-66
2021/10/14 09:11:13;;;;;;;13.60;7.37;;;14.00;99.90;;;;;;4453516;32;20183;-66
2021/10/14 09:13:57;;;;;;;12.70;7.70;;;14.30;99.90;;;;;;4452274;32;20205;-65
2021/10/14 09:16:29;;;;;;;13.00;7.50;;;14.80;99.90;;;;;;4455852;32;20177;-67
2021/10/14 09:19:13;;;;;;;13.23;6.60;;;15.10;99.90;;;;;;4444464;32;20264;-67
2021/10/14 09:21:51;;;;;;;9.47;5.53;;;15.20;99.90;;;;;;4453934;32;20126;-65
2021/10/14 09:24:38;;;;;;;16.20;6.47;;;15.30;99.90;;;;;;4455294;32;20126;-65
2021/10/14 09:27:10;;;;;;;9.93;5.53;;;15.20;99.90;;;;;;4455101;32;20130;-66
2021/10/14 09:29:38;;;;;;;10.33;5.70;;;15.50;99.90;;;;;;4455769;32;20123;-64
2021/10/14 09:32:14;;;;;;;9.87;5.47;;;15.60;99.90;;;;;;4454229;32;20184;-65
2021/10/14 09:34:49;;;;;;;10.40;5.33;;;15.80;99.90;;;;;;4454054;32;20174;-65
2021/10/14 09:37:15;;;;;;;9.30;5.43;;;15.80;99.90;;;;;;4455218;32;20134;-65
2021/10/14 09:40:02;;;;;;;9.07;5.10;;;15.60;99.90;;;;;;4456018;32;20149;-65
2021/10/14 09:42:51;;;;;;;8.87;4.97;;;16.20;99.90;;;;;;4445916;32;20166;-67
2021/10/14 09:45:18;;;;;;;10.00;5.00;;;16.10;99.90;;;;;;4454699;32;20400;-65
2021/10/14 09:48:06;;;;;;;9.10;4.93;;;16.30;99.90;;;;;;4455387;32;20169;-67
2021/10/14 09:50:53;;;;;;;8.63;4.70;;;16.20;99.90;;;;;;4455838;32;20451;-65
2021/10/14 09:53:25;;;;;;;9.13;4.67;;;16.80;99.90;;;;;;4447420;32;20143;-65
2021/10/14 09:55:54;;;;;;;6.00;3.70;;;17.00;99.90;;;;;;4454816;32;20416;-64
2021/10/14 09:58:22;;;;;;;6.30;3.50;;;17.10;98.10;;;;;;4455568;32;20457;-64
2021/10/14 10:00:50;;;;;;;6.50;3.40;;;17.60;97.30;;;;;;4455436;32;20396;-66
2021/10/14 10:03:22;;;;;;;6.83;3.30;;;17.80;95.90;;;;;;4453974;32;20123;-65
2021/10/14 10:05:51;;;;;;;6.60;3.80;;;18.10;94.00;;;;;;4455767;32;20134;-65
2021/10/14 10:08:34;;;;;;;5.57;3.63;;;17.50;94.50;;;;;;4453761;32;20218;-64
2021/10/14 10:11:04;;;;;;;7.90;4.07;;;17.20;95.70;;;;;;4454408;32;20156;-65
2021/10/14 10:13:33;;;;;;;6.07;3.80;;;17.40;94.70;;;;;;4455326;32;20547;-65
2021/10/14 10:16:19;;;;;;;6.53;3.80;;;17.90;94.70;;;;;;4456262;32;20134;-65
2021/10/14 10:19:02;;;;;;;9.00;4.00;;;18.10;92.80;;;;;;4458515;32;20130;-65
2021/10/14 10:21:32;;;;;;;7.03;3.57;;;17.90;92.70;;;;;;4458300;32;20122;-65
2021/10/14 10:24:03;;;;;;;6.40;3.47;;;17.70;92.10;;;;;;4449634;32;20296;-65
2021/10/14 10:26:35;;;;;;;6.70;3.47;;;18.10;92.30;;;;;;4441725;32;20127;-66
2021/10/14 10:29:11;;;;;;;6.43;3.60;;;18.70;90.30;;;;;;4442255;32;20139;-65
2021/10/14 10:31:56;;;;;;;5.03;3.23;;;18.30;90.30;;;;;;4442438;32;20134;-65
2021/10/14 10:37:42;;;;;;;5.90;2.97;;;17.90;89.60;;;;;;4409600;32;20196;-66
2021/10/14 10:40:22;;;;;;;7.13;2.80;;;17.50;90.10;;;;;;4409599;32;20366;-65
2021/10/14 10:43:17;;;;;;;5.93;2.70;;;17.20;90.90;;;;;;4407841;32;20193;-68
2021/10/14 10:45:56;;;;;;;7.70;3.10;;;16.70;90.80;;;;;;4362468;33;20482;-68
2021/10/14 10:48:40;;;;;;;6.77;3.00;;;15.80;91.80;;;;;;4364558;32;20148;-66
2021/10/14 10:51:09;;;;;;;5.97;2.40;;;14.90;93.00;;;;;;4362727;32;20156;-67
2021/10/14 10:53:42;;;;;;;5.57;2.90;;;14.20;94.50;;;;;;4363016;33;20198;-68
2021/10/14 10:56:27;;;;;;;4.97;3.13;;;14.40;95.70;;;;;;4362332;33;20145;-68
2021/10/14 10:58:56;;;;;;;5.00;3.23;;;15.50;95.00;;;;;;4362651;33;20141;-68
2021/10/14 11:01:23;;;;;;;7.10;3.10;;;15.90;93.90;;;;;;4362437;33;20207;-67
2021/10/14 11:04:04;;;;;;;5.67;2.80;;;15.90;93.60;;;;;;4364272;32;20167;-67
2021/10/14 11:06:33;;;;;;;5.07;2.60;;;15.00;92.70;;;;;;4366429;32;20190;-67
2021/10/14 11:09:06;;;;;;;4.37;2.50;;;14.40;94.40;;;;;;4375036;32;20500;-66
2021/10/14 11:11:35;;;;;;;5.47;2.70;;;14.20;93.90;;;;;;4378995;32;20166;-66
2021/10/14 11:14:02;;;;;;;3.87;2.40;;;13.90;94.30;;;;;;4389013;32;20524;-66
2021/10/14 11:16:31;;;;;;;4.20;2.43;;;14.30;94.50;;;;;;4407584;32;20147;-67
2021/10/14 11:19:00;;;;;;;4.63;2.67;;;15.30;93.30;;;;;;4409289;32;20227;-68
2021/10/14 11:21:37;;;;;;;5.53;2.90;;;16.10;91.70;;;;;;4417104;32;20178;-67
2021/10/14 11:24:04;;;;;;;4.50;2.63;;;17.00;91.00;;;;;;4441471;32;20175;-67
2021/10/14 11:26:37;;;;;;;4.97;2.80;;;17.90;86.30;;;;;;4445897;32;20168;-67
2021/10/14 11:29:28;;;;;;;5.90;2.60;;;18.20;84.80;;;;;;4443432;32;20147;-68
2021/10/14 11:32:06;;;;;;;6.40;2.90;;;18.50;83.50;;;;;;4441507;32;20472;-68
2021/10/14 11:34:34;;;;;;;6.07;2.80;;;17.80;84.30;;;;;;4440487;32;20169;-68
2021/10/14 11:37:05;;;;;;;6.90;3.40;;;17.40;86.20;;;;;;4439453;32;20180;-67
2021/10/14 11:39:34;;;;;;;4.87;3.37;;;16.90;86.70;;;;;;4439219;32;20146;-67
2021/10/14 11:42:09;;;;;;;6.60;3.43;;;15.90;90.50;;;;;;4441677;32;20126;-68
2021/10/14 11:44:39;;;;;;;4.97;3.30;;;15.40;91.50;;;;;;4441186;32;20213;-67
2021/10/14 11:47:07;;;;;;;6.23;3.73;;;14.80;92.50;;;;;;4441424;32;20143;-66
2021/10/14 11:49:35;;;;;;;5.87;3.60;;;14.30;93.30;;;;;;4439797;32;20131;-67
2021/10/14 11:52:04;;;;;;;6.30;3.43;;;14.00;94.40;;;;;;4441135;32;20170;-67
2021/10/14 11:54:32;;;;;;;7.50;3.57;;;14.00;95.10;;;;;;4440754;32;20130;-68
2021/10/14 11:56:59;;;;;;;6.63;3.27;;;14.50;94.70;;;;;;4439562;32;20179;-66
2021/10/14 11:59:27;;;;;;;7.10;3.70;;;14.50;94.50;;;;;;4441086;32;20131;-66
2021/10/14 12:01:59;;;;;;;7.60;3.90;;;14.00;95.30;;;;;;4439514;32;20445;-67
2021/10/14 12:04:29;;;;;;;9.27;3.90;;;13.90;96.10;;;;;;4439951;32;20236;-67
2021/10/14 12:06:57;;;;;;;6.13;4.13;;;13.80;96.50;;;;;;4441503;32;20210;-66
2021/10/14 12:09:38;;;;;;;9.33;3.90;;;13.50;97.20;;;;;;4441084;32;20511;-67
2021/10/14 12:12:06;;;;;;;6.67;3.70;;;13.20;97.50;;;;;;4440587;32;20516;-67
2021/10/14 12:14:35;;;;;;;6.93;3.57;;;12.90;97.90;;;;;;4441695;32;20250;-67
2021/10/14 12:17:11;;;;;;;5.43;3.43;;;12.80;98.60;;;;;;4440064;32;20147;-65
2021/10/14 12:19:39;;;;;;;5.10;3.50;;;12.80;99.10;;;;;;4439500;32;20402;-66
2021/10/14 12:22:07;;;;;;;6.00;3.47;;;12.60;99.10;;;;;;4440917;32;20230;-68
2021/10/14 12:24:57;;;;;;;5.90;3.50;;;12.60;99.20;;;;;;4438973;32;20126;-67
2021/10/14 12:27:50;;;;;;;5.80;3.53;;;12.80;98.80;;;;;;4439167;32;20167;-67
2021/10/14 12:32:31;;;;;;;5.93;3.70;;;12.90;97.70;;;;;;4484753;31;20535;-65
2021/10/14 12:34:59;;;;;;;8.07;3.80;;;13.00;98.10;;;;;;4468038;32;20125;-66
2021/10/14 12:37:32;;;;;;;6.87;4.37;;;12.80;98.00;;;;;;4468998;32;20433;-66
2021/10/14 12:40:19;;;;;;;8.53;4.10;;;12.50;98.30;;;;;;4469416;32;20176;-67
2021/10/14 12:43:02;;;;;;;6.37;3.80;;;12.30;98.90;;;;;;4467737;32;20129;-68
2021/10/14 12:53:45;;;;;;;7.97;4.53;;;12.20;99.90;;;;;;4452797;32;20122;-66
2021/10/14 12:56:15;;;;;;;8.20;4.60;;;12.20;99.90;;;;;;4453423;32;20537;-65
2021/10/14 12:58:43;;;;;;;6.40;4.33;;;12.10;99.90;;;;;;4452574;32;20559;-65
2021/10/14 13:01:16;;;;;;;7.40;4.20;;;12.10;99.90;;;;;;4451674;32;20203;-67